Time;durP1;ratioP1;P1;durP2;ratioP2;P2;SDS_P1;SDS_P2;PMS_P1;PMS_P2;Temp;Humidity;BMP_temperature;BMP_pressure;BME280_temperature;BME280_humidity;BME280_pressure;Samples;Min_cycle;Max_cycle;Signal;HPM_P1;HPM_P2
2022/06/07 00:00:44;;;;;;;17.90;8.85;;;12.60;99.90;;;;;;5125333;27;20490;-78
2022/06/07 00:03:10;;;;;;;13.45;8.15;;;12.60;99.90;;;;;;5117213;27;20440;-78
2022/06/07 00:05:35;;;;;;;13.77;8.38;;;12.60;99.90;;;;;;5127190;27;20402;-79
2022/06/07 00:08:01;;;;;;;15.37;8.07;;;12.60;99.90;;;;;;5129661;27;20995;-79
2022/06/07 00:10:26;;;;;;;13.75;8.43;;;12.60;99.90;;;;;;5128640;27;20452;-79
2022/06/07 00:12:53;;;;;;;14.80;8.80;;;12.60;99.90;;;;;;5128424;27;20432;-78
2022/06/07 00:15:21;;;;;;;13.68;8.80;;;12.60;99.90;;;;;;5119866;27;20401;-79
2022/06/07 00:17:47;;;;;;;14.88;8.75;;;12.60;99.90;;;;;;5120144;27;20402;-79
2022/06/07 00:20:13;;;;;;;15.23;8.30;;;12.60;99.90;;;;;;5116277;27;20457;-79
2022/06/07 00:22:39;;;;;;;13.40;8.17;;;12.60;99.90;;;;;;5132134;27;20409;-78
2022/06/07 00:25:08;;;;;;;13.68;8.27;;;12.60;99.90;;;;;;5130819;27;20896;-78
2022/06/07 00:27:34;;;;;;;14.00;7.88;;;12.60;99.90;;;;;;5123933;27;20404;-79
2022/06/07 00:30:00;;;;;;;13.27;7.85;;;12.50;99.90;;;;;;5093036;28;20431;-79
2022/06/07 00:32:26;;;;;;;13.67;7.90;;;12.50;99.90;;;;;;5114176;27;20407;-78
2022/06/07 00:34:52;;;;;;;12.33;8.07;;;12.50;99.90;;;;;;5130262;27;20428;-79
2022/06/07 00:37:18;;;;;;;14.65;7.70;;;12.50;99.90;;;;;;5130058;27;20387;-79
2022/06/07 00:39:43;;;;;;;11.30;7.22;;;12.50;99.90;;;;;;5130110;27;20410;-79
2022/06/07 00:42:10;;;;;;;13.77;7.70;;;12.60;99.90;;;;;;5129942;27;20410;-78
2022/06/07 00:44:38;;;;;;;11.00;7.23;;;12.60;99.90;;;;;;5129536;27;21313;-79
2022/06/07 00:47:13;;;;;;;11.90;7.20;;;12.60;99.90;;;;;;5118546;27;20400;-78
2022/06/07 00:49:49;;;;;;;10.65;6.88;;;12.50;99.90;;;;;;5108931;28;20902;-78
2022/06/07 00:52:17;;;;;;;11.40;7.32;;;12.50;99.90;;;;;;5122506;27;20845;-79
2022/06/07 00:54:43;;;;;;;11.93;7.20;;;12.60;99.90;;;;;;5115261;27;20431;-78
2022/06/07 00:57:09;;;;;;;12.40;7.37;;;12.50;99.90;;;;;;5130077;27;20959;-79
2022/06/07 00:59:35;;;;;;;12.40;8.07;;;12.60;99.90;;;;;;5112450;27;20444;-79
2022/06/07 01:02:01;;;;;;;11.93;7.55;;;12.60;99.90;;;;;;5131230;27;20394;-79
2022/06/07 01:04:27;;;;;;;12.70;7.90;;;12.50;99.90;;;;;;5129680;27;20401;-78
2022/06/07 01:12:22;;;;;;;12.80;7.70;;;12.60;99.90;;;;;;5130053;27;20542;-78
2022/06/07 01:14:48;;;;;;;13.70;8.00;;;12.60;99.90;;;;;;5127739;27;20507;-79
2022/06/07 01:17:14;;;;;;;16.55;8.27;;;12.60;99.90;;;;;;5128988;27;20413;-79
2022/06/07 01:19:39;;;;;;;14.73;8.17;;;12.60;99.90;;;;;;5129133;27;20520;-79
2022/06/07 01:22:05;;;;;;;12.27;8.02;;;12.60;99.90;;;;;;5098115;27;20411;-78
2022/06/07 01:24:31;;;;;;;10.90;8.13;;;12.60;99.90;;;;;;5114992;27;20396;-79
2022/06/07 01:26:56;;;;;;;12.23;8.10;;;12.60;99.90;;;;;;5130786;27;20395;-79
2022/06/07 01:29:22;;;;;;;11.37;7.50;;;12.60;99.90;;;;;;5130122;27;20456;-79
2022/06/07 01:31:48;;;;;;;14.98;8.20;;;12.60;99.90;;;;;;5128912;27;20486;-79
2022/06/07 01:34:15;;;;;;;12.55;8.00;;;12.50;99.90;;;;;;5129474;27;20818;-79
2022/06/07 01:36:40;;;;;;;12.73;7.60;;;12.60;99.90;;;;;;5097721;27;20486;-79
2022/06/07 01:41:56;;;;;;;12.20;7.80;;;12.60;99.90;;;;;;5129367;27;20439;-79
2022/06/07 01:44:37;;;;;;;10.90;7.70;;;12.60;99.90;;;;;;5129337;27;20481;-78
2022/06/07 01:47:04;;;;;;;13.98;7.82;;;12.60;99.90;;;;;;5124672;27;20408;-79
2022/06/07 01:49:30;;;;;;;14.05;8.73;;;12.60;99.90;;;;;;5119056;27;20409;-79
2022/06/07 01:51:56;;;;;;;12.85;7.72;;;12.60;99.90;;;;;;5128538;27;21124;-79
2022/06/07 01:54:22;;;;;;;13.77;8.18;;;12.60;99.90;;;;;;5128847;27;20442;-79
2022/06/07 01:56:49;;;;;;;13.32;8.18;;;12.60;99.90;;;;;;5129095;27;20438;-79
2022/06/07 01:59:16;;;;;;;13.02;7.95;;;12.70;99.90;;;;;;5111817;27;20402;-79
2022/06/07 02:01:42;;;;;;;11.85;7.40;;;12.70;99.90;;;;;;5127814;27;20456;-79
2022/06/07 02:04:10;;;;;;;13.73;8.15;;;12.70;99.90;;;;;;5128225;27;20842;-79
2022/06/07 02:06:36;;;;;;;12.55;8.02;;;12.70;99.90;;;;;;5127761;27;20403;-79
2022/06/07 02:09:03;;;;;;;11.02;8.20;;;12.70;99.90;;;;;;5128715;27;20395;-80
2022/06/07 02:11:29;;;;;;;12.35;8.32;;;12.70;99.90;;;;;;5130099;27;20402;-79
2022/06/07 02:13:54;;;;;;;12.93;8.13;;;12.70;99.90;;;;;;5128608;27;20427;-79
2022/06/07 02:16:21;;;;;;;11.85;8.40;;;12.60;99.90;;;;;;5111291;27;20950;-79
2022/06/07 02:18:47;;;;;;;13.55;8.55;;;12.70;99.90;;;;;;5128520;27;20486;-79
2022/06/07 02:21:15;;;;;;;12.13;7.90;;;12.70;99.90;;;;;;5127219;27;20904;-79
2022/06/07 02:23:41;;;;;;;11.70;8.27;;;12.70;99.90;;;;;;5128233;27;20402;-79
2022/06/07 02:26:31;;;;;;;15.48;8.98;;;12.70;99.90;;;;;;5124549;27;20743;-79
2022/06/07 02:29:21;;;;;;;13.38;7.57;;;12.70;99.90;;;;;;5106589;28;20415;-79
2022/06/07 02:31:54;;;;;;;14.23;8.27;;;12.70;99.90;;;;;;5114319;27;20829;-79
2022/06/07 02:34:20;;;;;;;11.75;8.55;;;12.70;99.90;;;;;;5121958;27;20429;-79
2022/06/07 02:36:50;;;;;;;12.35;8.48;;;12.70;99.90;;;;;;5107800;28;20902;-79
2022/06/07 02:39:17;;;;;;;12.32;8.55;;;12.70;99.90;;;;;;5113792;27;20399;-79
2022/06/07 02:41:45;;;;;;;14.83;9.23;;;12.70;99.90;;;;;;5113693;27;20424;-79
2022/06/07 02:44:11;;;;;;;12.80;8.70;;;12.80;99.90;;;;;;5115424;27;20404;-80
2022/06/07 02:46:36;;;;;;;14.25;8.45;;;12.80;99.90;;;;;;5112216;27;20410;-79
2022/06/07 02:49:03;;;;;;;14.77;8.47;;;12.80;99.90;;;;;;5118735;27;20392;-79
2022/06/07 02:51:28;;;;;;;13.27;8.18;;;12.80;99.90;;;;;;5107331;28;20461;-78
2022/06/07 02:53:56;;;;;;;15.17;8.50;;;12.80;99.90;;;;;;5108164;28;20420;-79
2022/06/07 02:56:22;;;;;;;14.85;8.93;;;12.80;99.90;;;;;;5113780;27;20771;-79
2022/06/07 02:58:48;;;;;;;13.77;7.70;;;12.80;99.90;;;;;;5107735;28;20828;-79
2022/06/07 03:01:14;;;;;;;14.57;8.27;;;12.80;99.90;;;;;;5121243;27;20487;-79
2022/06/07 03:03:40;;;;;;;13.68;8.82;;;12.80;99.90;;;;;;5109507;27;20404;-79
2022/06/07 03:06:06;;;;;;;13.95;8.18;;;12.80;99.90;;;;;;5090495;28;20401;-79
2022/06/07 03:08:32;;;;;;;13.23;8.90;;;12.80;99.90;;;;;;5108712;28;20407;-78
2022/06/07 03:10:58;;;;;;;14.32;9.32;;;12.90;99.90;;;;;;5108206;28;20451;-79
2022/06/07 03:13:24;;;;;;;14.55;9.27;;;12.90;99.90;;;;;;5106812;28;20448;-79
2022/06/07 03:15:52;;;;;;;13.50;8.50;;;12.80;99.90;;;;;;5106778;28;20491;-79
2022/06/07 03:18:18;;;;;;;12.07;8.60;;;12.90;99.90;;;;;;5108430;28;20484;-79
2022/06/07 03:20:48;;;;;;;12.07;8.60;;;12.80;99.90;;;;;;5089986;28;20444;-79
2022/06/07 03:23:14;;;;;;;11.32;8.10;;;12.80;99.90;;;;;;5108159;28;20384;-80
2022/06/07 03:25:40;;;;;;;13.48;8.98;;;12.80;99.90;;;;;;5108304;28;20397;-79
2022/06/07 03:28:06;;;;;;;14.23;9.27;;;12.80;99.90;;;;;;5107827;28;20436;-79
2022/06/07 03:30:31;;;;;;;15.25;9.40;;;12.80;99.90;;;;;;5116859;27;20822;-79
2022/06/07 03:32:58;;;;;;;15.17;9.70;;;12.80;99.90;;;;;;5111051;28;20917;-79
2022/06/07 03:35:24;;;;;;;14.32;9.93;;;12.80;99.90;;;;;;5111214;28;20404;-79
2022/06/07 03:37:50;;;;;;;17.58;10.23;;;12.80;99.90;;;;;;5115678;27;20455;-79
2022/06/07 03:40:42;;;;;;;16.35;10.25;;;12.80;99.90;;;;;;5120749;27;20754;-79
2022/06/07 03:43:03;;;;;;;15.43;10.10;;;12.80;99.90;;;;;;5126495;27;20439;-79
2022/06/07 03:45:30;;;;;;;13.80;9.70;;;12.80;99.90;;;;;;5111208;28;20458;-79
2022/06/07 03:47:55;;;;;;;15.35;10.45;;;12.80;99.90;;;;;;5125263;27;20416;-79
2022/06/07 03:50:21;;;;;;;15.85;9.40;;;12.80;99.90;;;;;;5120742;27;20968;-79
2022/06/07 03:52:47;;;;;;;14.07;9.03;;;12.80;99.90;;;;;;5114541;27;20414;-79
2022/06/07 03:55:12;;;;;;;14.77;9.60;;;12.80;99.90;;;;;;5111982;27;20396;-78
2022/06/07 03:57:38;;;;;;;18.10;10.00;;;12.80;99.90;;;;;;5110699;28;21153;-79
2022/06/07 04:00:08;;;;;;;12.77;8.35;;;12.80;99.90;;;;;;5111740;28;20403;-79
2022/06/07 04:02:34;;;;;;;14.60;8.85;;;12.80;99.90;;;;;;5110779;28;20411;-79
2022/06/07 04:05:00;;;;;;;14.38;9.05;;;12.80;99.90;;;;;;5114974;27;20398;-79
2022/06/07 04:10:11;;;;;;;13.85;8.65;;;12.80;99.90;;;;;;5110437;28;20417;-79
2022/06/07 04:12:37;;;;;;;13.73;8.87;;;12.80;99.90;;;;;;5111804;28;20399;-79
2022/06/07 04:15:03;;;;;;;15.95;9.85;;;12.80;99.90;;;;;;5110167;27;20444;-79
2022/06/07 04:17:28;;;;;;;15.07;10.50;;;12.80;99.90;;;;;;5111278;28;20413;-80
2022/06/07 04:19:54;;;;;;;15.30;11.10;;;12.80;99.90;;;;;;5110240;28;20400;-79
2022/06/07 04:22:20;;;;;;;16.48;10.95;;;12.80;99.90;;;;;;5117528;27;20398;-79
2022/06/07 04:24:46;;;;;;;15.00;10.27;;;12.80;99.90;;;;;;5117456;27;20404;-79
2022/06/07 04:27:12;;;;;;;13.57;10.02;;;12.80;99.90;;;;;;5127569;27;20900;-79
2022/06/07 04:29:38;;;;;;;13.33;9.63;;;12.80;99.90;;;;;;5130660;27;20486;-79
2022/06/07 04:32:04;;;;;;;15.40;9.70;;;12.70;99.90;;;;;;5124780;27;20511;-79
2022/06/07 04:34:29;;;;;;;14.50;9.45;;;12.70;99.90;;;;;;5111767;27;21898;-79
2022/06/07 04:36:55;;;;;;;14.93;9.93;;;12.70;99.90;;;;;;5123348;27;20580;-79
2022/06/07 04:39:21;;;;;;;14.13;9.60;;;12.70;99.90;;;;;;5124831;27;20782;-79
2022/06/07 04:41:46;;;;;;;16.20;10.07;;;12.60;99.90;;;;;;5110307;27;20409;-79
2022/06/07 04:44:12;;;;;;;13.10;9.57;;;12.70;99.90;;;;;;5120819;27;20399;-79
2022/06/07 04:46:38;;;;;;;13.83;9.37;;;12.70;99.90;;;;;;5113053;27;20483;-80
2022/06/07 04:49:04;;;;;;;14.18;9.48;;;12.60;99.90;;;;;;5111109;28;20409;-80
2022/06/07 04:51:32;;;;;;;17.15;10.60;;;12.60;99.90;;;;;;5109670;28;20490;-79
2022/06/07 04:54:00;;;;;;;15.45;10.52;;;12.60;99.90;;;;;;5109374;28;20439;-79
2022/06/07 04:56:27;;;;;;;17.02;10.90;;;12.50;99.90;;;;;;5109586;28;20474;-79
2022/06/07 04:58:54;;;;;;;17.63;10.90;;;12.50;99.90;;;;;;5110755;28;20453;-80
2022/06/07 05:01:26;;;;;;;18.88;11.27;;;12.40;99.90;;;;;;5120716;27;20935;-79
2022/06/07 05:03:53;;;;;;;17.17;10.40;;;12.40;99.90;;;;;;5110818;27;20409;-79
2022/06/07 05:06:34;;;;;;;16.30;10.18;;;12.30;99.90;;;;;;5119670;27;20421;-80
2022/06/07 05:09:03;;;;;;;12.88;8.95;;;12.30;99.90;;;;;;5110944;27;20412;-79
2022/06/07 05:11:30;;;;;;;12.25;8.10;;;12.20;99.90;;;;;;5109458;28;20407;-79
2022/06/07 05:13:57;;;;;;;13.25;7.25;;;12.20;99.90;;;;;;5111687;27;20449;-79
2022/06/07 05:16:23;;;;;;;12.02;6.90;;;12.20;99.90;;;;;;5103312;28;20766;-79
2022/06/07 05:18:50;;;;;;;11.13;7.00;;;12.20;99.90;;;;;;5123570;27;20382;-79
2022/06/07 05:21:16;;;;;;;11.93;7.20;;;12.20;99.90;;;;;;5109199;28;20412;-80
2022/06/07 05:23:43;;;;;;;12.38;7.10;;;12.20;99.90;;;;;;5123566;27;20406;-79
2022/06/07 05:26:23;;;;;;;11.65;6.78;;;12.30;99.90;;;;;;5114921;27;20406;-79
2022/06/07 05:28:49;;;;;;;12.35;5.82;;;12.30;99.90;;;;;;5115656;27;20443;-80
2022/06/07 05:31:15;;;;;;;11.20;6.03;;;12.30;99.90;;;;;;5123238;27;20731;-80
2022/06/07 05:33:41;;;;;;;9.45;5.95;;;12.40;99.90;;;;;;5109005;28;20527;-80
2022/06/07 05:36:07;;;;;;;11.88;6.40;;;12.40;99.90;;;;;;5123209;27;20398;-79
2022/06/07 05:38:33;;;;;;;10.57;6.20;;;12.40;99.90;;;;;;5108446;28;20964;-79
2022/06/07 05:40:58;;;;;;;12.30;6.53;;;12.50;99.90;;;;;;5124701;27;20399;-79
2022/06/07 05:43:24;;;;;;;10.65;6.25;;;12.50;99.90;;;;;;5123441;27;20411;-80
2022/06/07 05:45:55;;;;;;;10.43;6.38;;;12.60;99.90;;;;;;5091249;28;21054;-80
2022/06/07 05:48:21;;;;;;;10.00;6.07;;;12.60;99.90;;;;;;5108344;28;20396;-79
2022/06/07 05:50:53;;;;;;;10.90;6.70;;;12.70;99.90;;;;;;5119824;27;20478;-76
2022/06/07 05:53:20;;;;;;;10.50;6.55;;;12.70;99.90;;;;;;5111055;27;20416;-79
2022/06/07 05:55:46;;;;;;;11.53;7.20;;;12.70;99.90;;;;;;5108124;28;20921;-78
2022/06/07 05:58:12;;;;;;;10.75;7.30;;;12.70;99.90;;;;;;5107949;28;20405;-79
2022/06/07 06:00:39;;;;;;;14.23;8.18;;;12.70;99.90;;;;;;5108083;28;20396;-79
2022/06/07 06:03:05;;;;;;;14.10;8.10;;;12.70;99.90;;;;;;5107400;28;20427;-79
2022/06/07 06:05:33;;;;;;;14.25;7.93;;;12.70;99.90;;;;;;5112515;27;20419;-80
2022/06/07 06:10:44;;;;;;;13.02;8.15;;;12.70;99.90;;;;;;5097966;28;20427;-79
2022/06/07 06:13:09;;;;;;;11.82;7.90;;;12.60;99.90;;;;;;5112278;27;20403;-79
2022/06/07 06:15:36;;;;;;;12.30;7.87;;;12.60;99.90;;;;;;5108636;28;20392;-79
2022/06/07 06:18:02;;;;;;;16.92;7.60;;;12.60;99.90;;;;;;5118590;27;20402;-79
2022/06/07 06:20:28;;;;;;;11.50;6.90;;;12.60;99.90;;;;;;5111560;27;20410;-79
2022/06/07 06:22:54;;;;;;;12.77;7.55;;;12.50;99.90;;;;;;5124257;27;20760;-79
2022/06/07 06:25:20;;;;;;;15.57;8.20;;;12.50;99.90;;;;;;5110537;27;20397;-79
2022/06/07 06:27:45;;;;;;;15.00;8.30;;;12.40;99.90;;;;;;5116477;27;20396;-80
2022/06/07 06:30:11;;;;;;;14.40;7.50;;;12.40;99.90;;;;;;5117282;27;20416;-80
2022/06/07 06:32:37;;;;;;;11.57;6.47;;;12.40;99.90;;;;;;5109202;28;20534;-79
2022/06/07 06:35:05;;;;;;;7.43;4.60;;;12.40;99.90;;;;;;5106346;27;20427;-80
2022/06/07 06:37:31;;;;;;;8.82;5.00;;;12.40;99.90;;;;;;5126490;27;20942;-80
2022/06/07 06:39:56;;;;;;;7.57;4.10;;;12.40;99.90;;;;;;5113740;27;20424;-80
2022/06/07 06:42:22;;;;;;;6.10;3.88;;;12.40;99.90;;;;;;5116147;27;20404;-79
2022/06/07 06:44:48;;;;;;;7.67;4.50;;;12.40;99.90;;;;;;5094121;27;20446;-80
2022/06/07 06:47:14;;;;;;;10.57;4.25;;;12.40;99.90;;;;;;5111019;27;20405;-80
2022/06/07 06:49:41;;;;;;;8.45;4.40;;;12.30;99.90;;;;;;5108943;27;20410;-79
2022/06/07 06:52:09;;;;;;;8.77;3.85;;;12.40;99.90;;;;;;5127201;27;20971;-79
2022/06/07 06:54:36;;;;;;;7.00;3.60;;;12.40;99.90;;;;;;5125105;27;20487;-80
2022/06/07 06:57:03;;;;;;;7.80;3.00;;;12.40;99.90;;;;;;5122826;27;20753;-80
2022/06/07 06:59:28;;;;;;;5.60;2.20;;;12.40;99.90;;;;;;5117527;27;20404;-80
2022/06/07 07:01:54;;;;;;;4.97;2.17;;;12.40;99.90;;;;;;5119645;27;20423;-80
2022/06/07 07:04:21;;;;;;;5.40;2.03;;;12.40;99.90;;;;;;5121213;27;20499;-80
2022/06/07 07:06:47;;;;;;;4.07;1.60;;;12.50;99.90;;;;;;5120863;27;20406;-80
2022/06/07 07:09:16;;;;;;;4.25;1.60;;;12.50;99.90;;;;;;5107673;28;20447;-80
2022/06/07 07:11:48;;;;;;;5.40;1.50;;;12.60;99.90;;;;;;5115224;28;20456;-80
2022/06/07 07:14:14;;;;;;;4.30;1.40;;;12.60;99.90;;;;;;5109434;28;20428;-79
2022/06/07 07:16:44;;;;;;;4.45;1.60;;;12.70;99.90;;;;;;5113943;28;20442;-80
2022/06/07 07:19:11;;;;;;;4.43;1.92;;;12.80;99.90;;;;;;5114414;27;20399;-80
2022/06/07 07:21:43;;;;;;;5.18;1.80;;;13.00;99.90;;;;;;5122377;27;20404;-80
2022/06/07 07:24:13;;;;;;;4.20;2.00;;;13.10;99.90;;;;;;5115732;27;20404;-80
2022/06/07 07:26:39;;;;;;;7.70;2.40;;;13.30;99.90;;;;;;5096384;27;20404;-80
2022/06/07 07:29:05;;;;;;;6.53;2.33;;;13.40;99.90;;;;;;5106763;28;21144;-80
2022/06/07 07:31:36;;;;;;;4.40;1.75;;;13.50;99.90;;;;;;5107819;28;20397;-80
2022/06/07 07:34:03;;;;;;;5.15;2.15;;;13.60;99.90;;;;;;5116946;27;20436;-79
2022/06/07 07:36:30;;;;;;;6.85;2.55;;;13.70;99.90;;;;;;5119562;27;20486;-79
2022/06/07 07:38:57;;;;;;;6.95;2.47;;;13.70;99.90;;;;;;5110455;28;20391;-79
2022/06/07 07:41:29;;;;;;;6.05;2.28;;;13.70;99.90;;;;;;5121222;27;20471;-80
2022/06/07 07:43:57;;;;;;;5.53;2.15;;;13.70;99.90;;;;;;5120370;27;20981;-79
2022/06/07 07:46:25;;;;;;;7.53;2.30;;;13.70;99.90;;;;;;5125144;27;20407;-80
2022/06/07 07:48:51;;;;;;;7.30;1.75;;;13.70;99.90;;;;;;5127044;27;20489;-80
2022/06/07 07:51:23;;;;;;;5.87;1.80;;;13.70;99.90;;;;;;5121887;27;20398;-80
2022/06/07 07:53:50;;;;;;;6.03;2.10;;;13.70;99.90;;;;;;5116176;28;20919;-80
2022/06/07 07:56:16;;;;;;;7.97;1.85;;;13.70;99.90;;;;;;5120931;27;20497;-79
2022/06/07 07:58:42;;;;;;;6.10;1.70;;;13.70;99.90;;;;;;5127781;27;20395;-80
2022/06/07 08:01:10;;;;;;;8.48;1.80;;;13.70;99.90;;;;;;5125386;27;21404;-79
2022/06/07 08:03:37;;;;;;;7.65;1.92;;;13.80;99.90;;;;;;5108100;28;20402;-79
2022/06/07 08:06:05;;;;;;;8.93;1.92;;;13.70;99.90;;;;;;5127467;27;20444;-80
2022/06/07 08:08:30;;;;;;;7.32;1.90;;;13.70;99.90;;;;;;5109853;28;20407;-80
2022/06/07 08:10:56;;;;;;;7.47;1.95;;;13.70;99.90;;;;;;5128054;27;20398;-80
2022/06/07 08:13:22;;;;;;;6.93;2.20;;;13.70;99.90;;;;;;5126606;27;20471;-80
2022/06/07 08:15:48;;;;;;;6.43;1.33;;;13.60;99.90;;;;;;5116686;27;20408;-79
2022/06/07 08:18:13;;;;;;;7.47;1.67;;;13.50;99.90;;;;;;5129905;27;20475;-79
2022/06/07 08:20:39;;;;;;;6.10;1.43;;;13.50;99.90;;;;;;5127084;27;20407;-80
2022/06/07 08:23:07;;;;;;;8.15;1.70;;;13.40;99.90;;;;;;5120970;27;20768;-79
2022/06/07 08:25:33;;;;;;;9.27;2.10;;;13.40;99.90;;;;;;5109298;27;20415;-80
2022/06/07 08:27:59;;;;;;;11.05;2.22;;;13.40;99.90;;;;;;5127110;27;20402;-80
2022/06/07 08:30:24;;;;;;;7.72;1.73;;;13.50;99.90;;;;;;5125328;27;20465;-80
2022/06/07 08:32:50;;;;;;;9.07;1.30;;;13.60;99.90;;;;;;5129389;27;20415;-80
2022/06/07 08:38:03;;;;;;;6.15;1.20;;;13.70;99.90;;;;;;5119128;27;20437;-79
2022/06/07 08:40:42;;;;;;;6.95;1.30;;;13.90;99.90;;;;;;5123049;27;20516;-80
2022/06/07 08:43:16;;;;;;;6.30;1.02;;;14.00;99.90;;;;;;5123901;27;20475;-80
2022/06/07 08:45:43;;;;;;;6.07;0.90;;;14.10;99.90;;;;;;5093117;28;20940;-80
2022/06/07 08:48:18;;;;;;;6.20;0.95;;;14.20;99.90;;;;;;5111530;27;20422;-80
2022/06/07 08:50:50;;;;;;;5.47;1.00;;;14.30;99.90;;;;;;5121674;27;20448;-79
2022/06/07 08:53:21;;;;;;;7.63;0.90;;;14.40;99.90;;;;;;5127975;27;20481;-79
2022/06/07 08:55:54;;;;;;;5.53;1.27;;;14.60;99.90;;;;;;5128052;27;20509;-80
2022/06/07 08:58:35;;;;;;;5.40;0.90;;;14.60;99.90;;;;;;5122840;27;20409;-79
2022/06/07 09:01:13;;;;;;;8.05;1.10;;;14.70;99.90;;;;;;5109765;27;20428;-80
2022/06/07 09:03:54;;;;;;;5.85;0.93;;;14.80;99.90;;;;;;5113376;27;20425;-80
2022/06/07 09:06:25;;;;;;;7.57;1.15;;;14.80;99.90;;;;;;5120684;27;20431;-80
2022/06/07 09:08:54;;;;;;;7.20;1.20;;;14.90;99.90;;;;;;5123200;27;20420;-80
2022/06/07 09:14:42;;;;;;;6.25;1.30;;;14.80;99.90;;;;;;5122998;27;20461;-80
2022/06/07 09:17:16;;;;;;;6.82;1.23;;;14.70;99.90;;;;;;5116018;27;20426;-80
2022/06/07 09:19:43;;;;;;;6.35;1.25;;;14.60;99.90;;;;;;5124357;27;20420;-80
2022/06/07 09:22:19;;;;;;;6.60;1.03;;;14.50;99.90;;;;;;5127636;27;20908;-80
2022/06/07 09:25:13;;;;;;;5.07;0.98;;;14.50;99.90;;;;;;5122965;27;20408;-80
2022/06/07 09:27:38;;;;;;;7.20;1.40;;;14.50;99.90;;;;;;5107215;28;20411;-80
2022/06/07 09:30:16;;;;;;;9.20;1.20;;;14.50;99.90;;;;;;5110041;27;20409;-80
2022/06/07 09:32:45;;;;;;;5.35;0.90;;;14.50;99.90;;;;;;5096072;28;20423;-80
2022/06/07 09:35:38;;;;;;;5.10;0.70;;;14.50;99.90;;;;;;5112976;27;20443;-80
2022/06/07 09:38:41;;;;;;;5.32;0.90;;;14.50;99.90;;;;;;5107941;27;20892;-78
2022/06/07 09:41:36;;;;;;;7.50;1.30;;;14.50;99.90;;;;;;5079232;28;20435;-78
2022/06/07 09:44:20;;;;;;;8.75;1.20;;;14.50;99.90;;;;;;5108842;27;20452;-78
2022/06/07 09:46:50;;;;;;;6.80;1.17;;;14.40;99.90;;;;;;5108547;27;20420;-79
2022/06/07 09:49:43;;;;;;;7.00;1.50;;;14.30;99.90;;;;;;5116556;27;20457;-79
2022/06/07 09:52:23;;;;;;;8.43;1.30;;;14.30;99.90;;;;;;5109606;27;20487;-79
2022/06/07 09:55:04;;;;;;;6.97;1.30;;;14.20;99.90;;;;;;5112064;27;20433;-79
2022/06/07 09:57:46;;;;;;;7.60;1.00;;;14.20;99.90;;;;;;5110111;27;20420;-79
2022/06/07 10:00:17;;;;;;;5.30;0.93;;;14.20;99.90;;;;;;5114610;27;20420;-79
2022/06/07 10:03:18;;;;;;;2.93;0.40;;;14.20;99.90;;;;;;5107404;27;20660;-79
2022/06/07 10:06:12;;;;;;;4.30;0.50;;;14.20;99.90;;;;;;5100798;27;20483;-79
2022/06/07 10:08:47;;;;;;;3.60;0.60;;;14.30;99.90;;;;;;5113964;27;20932;-79
2022/06/07 10:11:27;;;;;;;3.90;0.45;;;14.30;99.90;;;;;;5111550;27;20428;-79
2022/06/07 10:14:11;;;;;;;5.10;0.40;;;14.40;99.90;;;;;;5126830;27;20464;-79
2022/06/07 10:16:46;;;;;;;2.60;0.50;;;14.40;99.90;;;;;;5122407;27;21002;-79
2022/06/07 10:19:27;;;;;;;3.10;0.70;;;14.50;99.90;;;;;;5107941;27;20436;-79
2022/06/07 10:22:04;;;;;;;3.90;0.60;;;14.50;99.90;;;;;;5112650;27;20436;-79
2022/06/07 10:24:54;;;;;;;4.47;0.60;;;14.70;99.90;;;;;;5108223;28;20408;-79
2022/06/07 10:27:26;;;;;;;5.97;0.82;;;14.70;99.90;;;;;;5112186;27;20408;-79
2022/06/07 10:30:13;;;;;;;3.72;0.77;;;14.80;99.90;;;;;;5111400;27;20475;-79
2022/06/07 10:32:52;;;;;;;6.65;0.90;;;14.90;99.90;;;;;;5108737;27;20466;-79
2022/06/07 10:35:26;;;;;;;6.25;0.80;;;15.10;99.90;;;;;;5111916;27;20428;-79
2022/06/07 10:38:01;;;;;;;6.50;1.10;;;15.20;99.90;;;;;;5102939;28;20499;-79
2022/06/07 10:40:48;;;;;;;5.97;1.30;;;15.30;99.90;;;;;;5106592;28;21109;-79
2022/06/07 10:43:18;;;;;;;7.45;1.40;;;15.20;99.90;;;;;;5110114;27;20399;-79
2022/06/07 10:45:45;;;;;;;7.22;1.50;;;15.10;99.90;;;;;;5118157;27;20420;-83
2022/06/07 10:48:18;;;;;;;6.93;1.00;;;15.10;99.90;;;;;;5090654;28;20510;-80
2022/06/07 10:50:53;;;;;;;8.73;1.35;;;15.00;99.90;;;;;;5110546;27;20436;-79
2022/06/07 10:53:37;;;;;;;9.48;1.52;;;15.00;99.90;;;;;;5117269;27;20425;-80
2022/06/07 10:56:41;;;;;;;7.70;1.40;;;15.00;99.90;;;;;;5107162;27;20427;-79
2022/06/07 10:59:17;;;;;;;8.52;1.33;;;15.00;99.90;;;;;;5127341;27;20415;-79
2022/06/07 11:02:21;;;;;;;8.87;1.70;;;15.00;99.90;;;;;;5119685;27;20418;-79
2022/06/07 11:10:38;;;;;;;6.25;1.08;;;14.80;99.90;;;;;;5107364;28;21020;-79
2022/06/07 11:13:33;;;;;;;6.23;1.07;;;14.70;99.90;;;;;;5113965;27;20520;-79
2022/06/07 11:16:15;;;;;;;6.13;0.98;;;14.60;99.90;;;;;;5110226;28;20426;-79
2022/06/07 11:18:42;;;;;;;9.30;1.20;;;14.50;99.90;;;;;;5118316;27;20938;-79
2022/06/07 11:21:08;;;;;;;5.93;1.08;;;14.60;99.90;;;;;;5106379;28;20477;-79
2022/06/07 11:23:43;;;;;;;8.65;1.10;;;14.80;99.90;;;;;;5125105;28;20418;-79
2022/06/07 11:26:14;;;;;;;3.95;0.80;;;14.90;99.90;;;;;;5114705;27;20402;-79
2022/06/07 11:28:39;;;;;;;6.07;1.00;;;15.10;99.90;;;;;;5125768;27;20421;-79
2022/06/07 11:31:35;;;;;;;7.80;1.20;;;15.20;99.90;;;;;;5107338;28;20421;-79
2022/06/07 11:34:22;;;;;;;6.57;1.00;;;15.30;99.90;;;;;;5105029;28;20436;-79
2022/06/07 11:36:49;;;;;;;5.93;1.08;;;15.40;99.90;;;;;;5105230;28;20420;-79
2022/06/07 11:39:28;;;;;;;7.25;0.85;;;15.50;99.90;;;;;;5106299;28;20397;-79
2022/06/07 11:42:14;;;;;;;7.35;0.98;;;15.50;99.90;;;;;;5113500;27;20434;-79
2022/06/07 11:44:43;;;;;;;7.93;0.90;;;15.60;99.90;;;;;;5112967;27;20850;-79
2022/06/07 11:47:11;;;;;;;7.32;1.15;;;15.60;99.90;;;;;;5111289;28;20409;-79
2022/06/07 11:49:52;;;;;;;6.60;0.80;;;15.70;99.90;;;;;;5121382;27;20410;-79
2022/06/07 11:52:28;;;;;;;6.40;0.80;;;16.00;99.90;;;;;;5120135;27;20458;-80
2022/06/07 11:55:15;;;;;;;4.93;0.90;;;16.20;99.90;;;;;;5121053;27;20432;-79
2022/06/07 11:58:00;;;;;;;5.53;1.00;;;16.20;99.90;;;;;;5124558;27;20800;-79
2022/06/07 12:00:29;;;;;;;4.95;0.90;;;16.20;99.90;;;;;;5131636;27;20403;-79
2022/06/07 12:02:58;;;;;;;5.60;0.80;;;16.20;99.90;;;;;;5129178;27;20904;-79
2022/06/07 12:05:30;;;;;;;4.57;0.70;;;16.20;99.90;;;;;;5127736;27;20931;-79
2022/06/07 12:08:17;;;;;;;5.33;0.80;;;16.10;99.90;;;;;;5132397;27;20402;-79
2022/06/07 12:10:59;;;;;;;5.28;1.08;;;16.00;99.90;;;;;;5110494;28;20494;-79
2022/06/07 12:16:33;;;;;;;6.60;1.00;;;16.00;99.90;;;;;;5121513;27;20455;-79
2022/06/07 12:19:00;;;;;;;6.95;1.00;;;15.90;99.90;;;;;;5132170;27;20407;-79
2022/06/07 12:21:28;;;;;;;5.18;0.80;;;15.90;99.90;;;;;;5131865;27;20760;-79
2022/06/07 12:24:10;;;;;;;3.78;0.60;;;15.80;99.90;;;;;;5130811;27;20497;-80
2022/06/07 12:26:35;;;;;;;4.37;0.80;;;15.90;99.90;;;;;;5132111;27;20482;-79
2022/06/07 12:29:11;;;;;;;5.00;0.70;;;16.00;99.90;;;;;;5131094;27;20485;-79
2022/06/07 12:32:16;;;;;;;2.80;0.43;;;16.10;99.90;;;;;;5125329;27;20403;-79
2022/06/07 12:34:41;;;;;;;3.63;0.75;;;16.20;99.90;;;;;;5125719;27;20501;-79
2022/06/07 12:37:10;;;;;;;4.87;0.70;;;16.20;99.90;;;;;;5129783;27;20403;-79
2022/06/07 12:39:51;;;;;;;4.47;0.70;;;16.20;99.90;;;;;;5130704;27;20445;-80
2022/06/07 12:42:19;;;;;;;3.40;0.70;;;16.10;99.90;;;;;;5129835;27;20406;-79
2022/06/07 12:45:12;;;;;;;4.88;0.90;;;16.10;99.90;;;;;;5121915;27;20409;-80
2022/06/07 12:47:39;;;;;;;6.43;1.03;;;16.00;99.90;;;;;;5106139;27;20492;-80
2022/06/07 12:50:21;;;;;;;5.15;1.05;;;16.10;99.90;;;;;;5098225;28;20412;-80
2022/06/07 12:52:53;;;;;;;5.53;1.30;;;16.50;99.90;;;;;;5126937;27;20427;-80
2022/06/07 12:55:39;;;;;;;4.65;1.00;;;17.00;99.90;;;;;;5127078;27;20426;-80
2022/06/07 12:58:19;;;;;;;5.40;1.17;;;17.60;99.90;;;;;;5128016;27;20410;-79
2022/06/07 13:00:47;;;;;;;4.03;0.70;;;18.00;99.90;;;;;;5111010;28;20031;-80
2022/06/07 13:03:24;;;;;;;;;;;18.30;99.90;;;;;;5128023;27;20043;-80
2022/06/07 13:06:01;;;;;;;;;;;18.60;99.90;;;;;;5123372;27;19919;-80
2022/06/07 13:08:32;;;;;;;;;;;18.90;99.90;;;;;;5129905;27;19919;-80
2022/06/07 13:10:58;;;;;;;;;;;19.00;99.90;;;;;;5131657;27;20029;-80
2022/06/07 13:13:29;;;;;;;;;;;19.20;99.90;;;;;;5119200;27;20026;-80
2022/06/07 13:15:58;;;;;;;;;;;19.40;99.90;;;;;;5110690;28;20450;-79
2022/06/07 13:18:32;;;;;;;;;;;19.60;99.90;;;;;;5118190;27;19923;-80
2022/06/07 13:21:24;;;;;;;;;;;19.60;99.90;;;;;;5110798;28;19919;-80
2022/06/07 13:23:55;;;;;;;;;;;19.20;99.90;;;;;;5123880;27;20602;-80
2022/06/07 13:26:29;;;;;;;;;;;18.80;99.90;;;;;;5111089;28;19963;-80
2022/06/07 13:29:10;;;;;;;;;;;18.60;99.90;;;;;;5110703;27;19953;-79
2022/06/07 13:31:48;;;;;;;;;;;18.30;99.90;;;;;;5111174;28;19920;-80